sensor_id;sensor_type;location;lat;lon;timestamp;pressure;altitude;pressure_sealevel;temperature;humidity
70323;BME280;57735;56.264;43.898;2023-03-05T00:01:15;97952.78;;;-0.55;76.70
70323;BME280;57735;56.264;43.898;2023-03-05T00:03:47;97942.03;;;-0.52;76.78
70323;BME280;57735;56.264;43.898;2023-03-05T00:06:18;97941.72;;;-0.49;76.60
70323;BME280;57735;56.264;43.898;2023-03-05T00:08:49;97938.81;;;-0.46;76.64
70323;BME280;57735;56.264;43.898;2023-03-05T00:11:21;97939.50;;;-0.44;76.53
70323;BME280;57735;56.264;43.898;2023-03-05T00:13:51;97933.16;;;-0.41;76.37
70323;BME280;57735;56.264;43.898;2023-03-05T00:16:22;97929.59;;;-0.40;76.29
70323;BME280;57735;56.264;43.898;2023-03-05T00:18:56;97916.63;;;-0.42;76.33
70323;BME280;57735;56.264;43.898;2023-03-05T00:21:28;97916.91;;;-0.45;76.38
70323;BME280;57735;56.264;43.898;2023-03-05T00:23:59;97915.28;;;-0.46;76.93
70323;BME280;57735;56.264;43.898;2023-03-05T00:26:31;97913.47;;;-0.45;77.10
70323;BME280;57735;56.264;43.898;2023-03-05T00:29:03;97908.09;;;-0.44;77.09
70323;BME280;57735;56.264;43.898;2023-03-05T00:31:35;97898.75;;;-0.46;76.80
70323;BME280;57735;56.264;43.898;2023-03-05T00:34:07;97900.81;;;-0.50;77.19
70323;BME280;57735;56.264;43.898;2023-03-05T00:36:41;97892.97;;;-0.50;77.12
70323;BME280;57735;56.264;43.898;2023-03-05T00:39:12;97887.75;;;-0.50;77.19
70323;BME280;57735;56.264;43.898;2023-03-05T00:41:43;97887.09;;;-0.52;77.12
70323;BME280;57735;56.264;43.898;2023-03-05T00:44:14;97879.25;;;-0.52;76.96
70323;BME280;57735;56.264;43.898;2023-03-05T00:46:47;97879.25;;;-0.52;77.11
70323;BME280;57735;56.264;43.898;2023-03-05T00:49:17;97874.97;;;-0.53;76.81
70323;BME280;57735;56.264;43.898;2023-03-05T00:51:50;97869.88;;;-0.54;76.70
70323;BME280;57735;56.264;43.898;2023-03-05T00:54:21;97867.81;;;-0.51;76.82
70323;BME280;57735;56.264;43.898;2023-03-05T00:56:51;97860.75;;;-0.50;76.82
70323;BME280;57735;56.264;43.898;2023-03-05T00:59:22;97858.31;;;-0.52;76.70
70323;BME280;57735;56.264;43.898;2023-03-05T01:01:52;97856.34;;;-0.50;76.94
70323;BME280;57735;56.264;43.898;2023-03-05T01:04:23;97850.75;;;-0.55;76.93
70323;BME280;57735;56.264;43.898;2023-03-05T01:06:54;97848.69;;;-0.61;76.97
70323;BME280;57735;56.264;43.898;2023-03-05T01:09:24;97839.34;;;-0.63;77.17
70323;BME280;57735;56.264;43.898;2023-03-05T01:11:55;97847.88;;;-0.61;77.40
70323;BME280;57735;56.264;43.898;2023-03-05T01:14:26;97844.16;;;-0.59;77.09
70323;BME280;57735;56.264;43.898;2023-03-05T01:16:57;97837.28;;;-0.60;76.94
70323;BME280;57735;56.264;43.898;2023-03-05T01:19:27;97835.47;;;-0.59;77.09
70323;BME280;57735;56.264;43.898;2023-03-05T01:21:58;97832.56;;;-0.56;77.02
70323;BME280;57735;56.264;43.898;2023-03-05T01:24:29;97835.41;;;-0.50;77.10
70323;BME280;57735;56.264;43.898;2023-03-05T01:27:00;97831.81;;;-0.49;76.88
70323;BME280;57735;56.264;43.898;2023-03-05T01:29:36;97825.78;;;-0.49;76.90
70323;BME280;57735;56.264;43.898;2023-03-05T01:32:09;97827.13;;;-0.45;76.96
70323;BME280;57735;56.264;43.898;2023-03-05T01:34:45;97826.16;;;-0.44;76.87
70323;BME280;57735;56.264;43.898;2023-03-05T01:37:16;97822.97;;;-0.38;76.73
70323;BME280;57735;56.264;43.898;2023-03-05T01:39:49;97818.41;;;-0.36;76.54
70323;BME280;57735;56.264;43.898;2023-03-05T01:42:19;97821.84;;;-0.36;76.35
70323;BME280;57735;56.264;43.898;2023-03-05T01:47:33;97812.03;;;-0.33;76.24
70323;BME280;57735;56.264;43.898;2023-03-05T01:50:04;97806.81;;;-0.33;76.20
70323;BME280;57735;56.264;43.898;2023-03-05T01:52:35;97801.88;;;-0.37;76.11
70323;BME280;57735;56.264;43.898;2023-03-05T01:55:17;97806.97;;;-0.35;76.34
70323;BME280;57735;56.264;43.898;2023-03-05T01:57:50;97801.88;;;-0.37;76.26
70323;BME280;57735;56.264;43.898;2023-03-05T02:00:26;97796.94;;;-0.40;76.20
70323;BME280;57735;56.264;43.898;2023-03-05T02:03:00;97793.22;;;-0.37;76.43
70323;BME280;57735;56.264;43.898;2023-03-05T02:05:33;97788.47;;;-0.33;76.16
70323;BME280;57735;56.264;43.898;2023-03-05T02:08:05;97790.94;;;-0.32;76.13
70323;BME280;57735;56.264;43.898;2023-03-05T02:10:57;97776.06;;;-0.31;76.18
70323;BME280;57735;56.264;43.898;2023-03-05T02:13:31;97783.25;;;-0.33;76.05
70323;BME280;57735;56.264;43.898;2023-03-05T02:16:02;97775.25;;;-0.32;76.05
70323;BME280;57735;56.264;43.898;2023-03-05T02:18:33;97776.06;;;-0.31;76.03
70323;BME280;57735;56.264;43.898;2023-03-05T02:21:07;97770.16;;;-0.33;75.85
70323;BME280;57735;56.264;43.898;2023-03-05T02:23:38;97764.44;;;-0.37;75.80
70323;BME280;57735;56.264;43.898;2023-03-05T02:26:09;97758.38;;;-0.38;75.92
70323;BME280;57735;56.264;43.898;2023-03-05T02:28:49;97774.06;;;-0.38;75.84
70323;BME280;57735;56.264;43.898;2023-03-05T02:31:23;97758.06;;;-0.34;75.88
70323;BME280;57735;56.264;43.898;2023-03-05T02:33:54;97756.94;;;-0.32;75.83
70323;BME280;57735;56.264;43.898;2023-03-05T02:36:25;97754.53;;;-0.25;76.17
70323;BME280;57735;56.264;43.898;2023-03-05T02:38:56;97753.44;;;-0.23;75.93
70323;BME280;57735;56.264;43.898;2023-03-05T02:41:28;97757.53;;;-0.20;75.90
70323;BME280;57735;56.264;43.898;2023-03-05T02:43:58;97744.59;;;-0.22;75.80
70323;BME280;57735;56.264;43.898;2023-03-05T02:46:29;97741.84;;;-0.20;75.90
70323;BME280;57735;56.264;43.898;2023-03-05T02:48:59;97739.91;;;-0.18;75.97
70323;BME280;57735;56.264;43.898;2023-03-05T02:51:30;97739.91;;;-0.18;76.01
70323;BME280;57735;56.264;43.898;2023-03-05T02:54:01;97737.44;;;-0.20;75.84
70323;BME280;57735;56.264;43.898;2023-03-05T02:56:31;97733.00;;;-0.19;75.93
70323;BME280;57735;56.264;43.898;2023-03-05T02:59:02;97731.22;;;-0.19;76.10
70323;BME280;57735;56.264;43.898;2023-03-05T03:01:32;97732.88;;;-0.18;75.92
70323;BME280;57735;56.264;43.898;2023-03-05T03:04:03;97728.28;;;-0.16;76.07
70323;BME280;57735;56.264;43.898;2023-03-05T03:06:33;97736.31;;;-0.17;76.06
70323;BME280;57735;56.264;43.898;2023-03-05T03:09:04;97716.34;;;-0.18;76.09
70323;BME280;57735;56.264;43.898;2023-03-05T03:11:34;97725.47;;;-0.22;76.17
70323;BME280;57735;56.264;43.898;2023-03-05T03:14:05;97719.69;;;-0.26;76.61
70323;BME280;57735;56.264;43.898;2023-03-05T03:16:35;97719.03;;;-0.28;76.70
70323;BME280;57735;56.264;43.898;2023-03-05T03:19:06;97710.34;;;-0.28;76.97
70323;BME280;57735;56.264;43.898;2023-03-05T03:21:37;97709.91;;;-0.24;76.99
70323;BME280;57735;56.264;43.898;2023-03-05T03:24:07;97709.75;;;-0.22;76.79
70323;BME280;57735;56.264;43.898;2023-03-05T03:26:38;97708.63;;;-0.20;76.80
70323;BME280;57735;56.264;43.898;2023-03-05T03:29:08;97706.69;;;-0.18;76.97
70323;BME280;57735;56.264;43.898;2023-03-05T03:31:39;97710.63;;;-0.14;76.92
70323;BME280;57735;56.264;43.898;2023-03-05T03:34:14;97710.31;;;-0.11;76.92
70323;BME280;57735;56.264;43.898;2023-03-05T03:36:45;97701.34;;;-0.08;76.88
70323;BME280;57735;56.264;43.898;2023-03-05T03:39:18;97705.31;;;-0.04;76.87
70323;BME280;57735;56.264;43.898;2023-03-05T03:41:50;97693.88;;;-0.03;76.37
70323;BME280;57735;56.264;43.898;2023-03-05T03:44:22;97689.91;;;-0.07;76.02
70323;BME280;57735;56.264;43.898;2023-03-05T03:46:53;97691.69;;;-0.08;76.04
70323;BME280;57735;56.264;43.898;2023-03-05T03:49:24;97699.69;;;-0.09;75.86
70323;BME280;57735;56.264;43.898;2023-03-05T03:51:55;97691.19;;;-0.11;75.66
70323;BME280;57735;56.264;43.898;2023-03-05T03:54:27;97687.59;;;-0.10;75.84
70323;BME280;57735;56.264;43.898;2023-03-05T03:56:58;97690.88;;;-0.08;75.86
70323;BME280;57735;56.264;43.898;2023-03-05T03:59:28;97685.50;;;-0.07;75.48
70323;BME280;57735;56.264;43.898;2023-03-05T04:01:59;97681.38;;;-0.09;75.06
70323;BME280;57735;56.264;43.898;2023-03-05T04:04:29;97688.56;;;-0.11;75.28
70323;BME280;57735;56.264;43.898;2023-03-05T04:07:00;97677.94;;;-0.10;75.41
70323;BME280;57735;56.264;43.898;2023-03-05T04:09:30;97678.47;;;-0.06;75.11
70323;BME280;57735;56.264;43.898;2023-03-05T04:12:03;97677.47;;;-0.05;75.10
70323;BME280;57735;56.264;43.898;2023-03-05T04:14:34;97684.72;;;0.01;75.11
70323;BME280;57735;56.264;43.898;2023-03-05T04:17:07;97677.38;;;0.05;75.02
70323;BME280;57735;56.264;43.898;2023-03-05T04:19:38;97678.50;;;0.02;74.50
70323;BME280;57735;56.264;43.898;2023-03-05T04:22:09;97680.63;;;-0.02;74.58
70323;BME280;57735;56.264;43.898;2023-03-05T04:24:41;97680.47;;;0.00;74.81
70323;BME280;57735;56.264;43.898;2023-03-05T04:27:11;97683.09;;;0.00;74.49
70323;BME280;57735;56.264;43.898;2023-03-05T04:29:44;97673.91;;;-0.04;74.58
70323;BME280;57735;56.264;43.898;2023-03-05T04:32:15;97671.28;;;-0.04;74.56
70323;BME280;57735;56.264;43.898;2023-03-05T04:34:52;97678.00;;;-0.02;74.38
70323;BME280;57735;56.264;43.898;2023-03-05T04:37:23;97673.41;;;0.00;74.35
70323;BME280;57735;56.264;43.898;2023-03-05T04:39:54;97674.06;;;0.03;74.36
70323;BME280;57735;56.264;43.898;2023-03-05T04:42:27;97681.47;;;0.07;74.38
70323;BME280;57735;56.264;43.898;2023-03-05T04:44:57;97679.16;;;0.04;74.13
70323;BME280;57735;56.264;43.898;2023-03-05T04:47:30;97678.72;;;0.09;74.24
70323;BME280;57735;56.264;43.898;2023-03-05T04:50:01;97680.50;;;0.08;74.24
70323;BME280;57735;56.264;43.898;2023-03-05T04:52:33;97686.72;;;0.07;74.12
70323;BME280;57735;56.264;43.898;2023-03-05T04:55:03;97678.50;;;0.02;74.39
70323;BME280;57735;56.264;43.898;2023-03-05T04:57:34;97674.06;;;0.03;74.55
70323;BME280;57735;56.264;43.898;2023-03-05T05:00:06;97675.88;;;0.02;74.74
70323;BME280;57735;56.264;43.898;2023-03-05T05:02:38;97671.00;;;0.07;74.79
70323;BME280;57735;56.264;43.898;2023-03-05T05:05:09;97674.34;;;0.17;74.93
70323;BME280;57735;56.264;43.898;2023-03-05T05:07:41;97677.97;;;0.24;74.68
70323;BME280;57735;56.264;43.898;2023-03-05T05:10:14;97681.28;;;0.26;74.30
70323;BME280;57735;56.264;43.898;2023-03-05T05:12:45;97672.53;;;0.18;74.14
70323;BME280;57735;56.264;43.898;2023-03-05T05:15:16;97684.66;;;0.19;74.40
70323;BME280;57735;56.264;43.898;2023-03-05T05:17:46;97670.09;;;0.16;74.52
70323;BME280;57735;56.264;43.898;2023-03-05T05:20:17;97674.50;;;0.16;74.37
70323;BME280;57735;56.264;43.898;2023-03-05T05:22:47;97672.38;;;0.19;74.49
70323;BME280;57735;56.264;43.898;2023-03-05T05:25:18;97670.13;;;0.24;74.24
70323;BME280;57735;56.264;43.898;2023-03-05T05:27:49;97676.72;;;0.28;74.30
70323;BME280;57735;56.264;43.898;2023-03-05T05:30:19;97670.53;;;0.38;74.31
70323;BME280;57735;56.264;43.898;2023-03-05T05:32:50;97676.78;;;0.45;73.96
70323;BME280;57735;56.264;43.898;2023-03-05T05:35:20;97673.88;;;0.48;73.73
70323;BME280;57735;56.264;43.898;2023-03-05T05:37:51;97677.97;;;0.50;73.70
70323;BME280;57735;56.264;43.898;2023-03-05T05:40:21;97677.78;;;0.52;74.08
70323;BME280;57735;56.264;43.898;2023-03-05T05:42:54;97670.09;;;0.50;73.79
70323;BME280;57735;56.264;43.898;2023-03-05T05:45:25;97669.94;;;0.52;73.70
70323;BME280;57735;56.264;43.898;2023-03-05T05:47:55;97673.22;;;0.54;73.67
70323;BME280;57735;56.264;43.898;2023-03-05T05:50:26;97665.66;;;0.51;73.60
70323;BME280;57735;56.264;43.898;2023-03-05T05:52:56;97671.56;;;0.53;73.72
70323;BME280;57735;56.264;43.898;2023-03-05T05:55:29;97674.25;;;0.61;73.36
70323;BME280;57735;56.264;43.898;2023-03-05T05:58:00;97663.13;;;0.67;73.02
70323;BME280;57735;56.264;43.898;2023-03-05T06:00:30;97664.94;;;0.75;72.49
70323;BME280;57735;56.264;43.898;2023-03-05T06:03:01;97657.13;;;0.83;72.12
70323;BME280;57735;56.264;43.898;2023-03-05T06:05:32;97661.72;;;0.89;71.86
70323;BME280;57735;56.264;43.898;2023-03-05T06:08:02;97656.31;;;0.82;71.28
70323;BME280;57735;56.264;43.898;2023-03-05T06:10:33;97655.47;;;0.82;71.53
70323;BME280;57735;56.264;43.898;2023-03-05T06:13:04;97654.00;;;0.79;71.29
70323;BME280;57735;56.264;43.898;2023-03-05T06:15:37;97656.78;;;0.78;71.26
70323;BME280;57735;56.264;43.898;2023-03-05T06:18:07;97654.66;;;0.81;71.26
70323;BME280;57735;56.264;43.898;2023-03-05T06:20:38;97656.16;;;0.84;71.02
70323;BME280;57735;56.264;43.898;2023-03-05T06:23:08;97657.13;;;0.83;70.95
70323;BME280;57735;56.264;43.898;2023-03-05T06:25:39;97651.38;;;0.87;71.19
70323;BME280;57735;56.264;43.898;2023-03-05T06:28:09;97653.38;;;0.93;71.07
70323;BME280;57735;56.264;43.898;2023-03-05T06:30:40;97651.69;;;0.84;71.00
70323;BME280;57735;56.264;43.898;2023-03-05T06:33:11;97652.66;;;0.75;71.58
70323;BME280;57735;56.264;43.898;2023-03-05T06:35:42;97654.47;;;0.75;71.86
70323;BME280;57735;56.264;43.898;2023-03-05T06:38:12;97655.28;;;0.75;71.94
70323;BME280;57735;56.264;43.898;2023-03-05T06:40:43;97659.41;;;0.78;72.32
70323;BME280;57735;56.264;43.898;2023-03-05T06:43:14;97655.97;;;0.85;72.10
70323;BME280;57735;56.264;43.898;2023-03-05T06:45:44;97664.19;;;0.90;72.07
70323;BME280;57735;56.264;43.898;2023-03-05T06:48:15;97658.59;;;0.85;71.69
70323;BME280;57735;56.264;43.898;2023-03-05T06:50:45;97654.81;;;0.88;72.23
70323;BME280;57735;56.264;43.898;2023-03-05T06:53:16;97659.41;;;0.86;72.38
70323;BME280;57735;56.264;43.898;2023-03-05T06:55:47;97661.88;;;0.87;72.32
70323;BME280;57735;56.264;43.898;2023-03-05T06:58:18;97666.66;;;0.92;72.59
70323;BME280;57735;56.264;43.898;2023-03-05T07:00:48;97665.19;;;0.97;72.72
70323;BME280;57735;56.264;43.898;2023-03-05T07:03:19;97657.66;;;1.02;72.96
70323;BME280;57735;56.264;43.898;2023-03-05T07:05:49;97660.63;;;1.08;73.18
70323;BME280;57735;56.264;43.898;2023-03-05T07:08:20;97659.28;;;1.03;73.17
70323;BME280;57735;56.264;43.898;2023-03-05T07:10:50;97675.38;;;1.00;73.44
70323;BME280;57735;56.264;43.898;2023-03-05T07:13:21;97667.66;;;0.99;73.44
70323;BME280;57735;56.264;43.898;2023-03-05T07:15:55;97667.16;;;0.95;73.57
70323;BME280;57735;56.264;43.898;2023-03-05T07:18:28;97668.44;;;0.83;73.58
70323;BME280;57735;56.264;43.898;2023-03-05T07:21:05;97681.53;;;0.83;73.67
70323;BME280;57735;56.264;43.898;2023-03-05T07:23:36;97670.88;;;0.85;73.81
70323;BME280;57735;56.264;43.898;2023-03-05T07:26:06;97671.69;;;0.85;73.58
70323;BME280;57735;56.264;43.898;2023-03-05T07:28:40;97666.91;;;0.73;73.43
70323;BME280;57735;56.264;43.898;2023-03-05T07:31:11;97668.69;;;0.72;73.87
70323;BME280;57735;56.264;43.898;2023-03-05T07:33:42;97673.06;;;0.55;73.46
70323;BME280;57735;56.264;43.898;2023-03-05T07:36:12;97677.31;;;0.56;74.07
70323;BME280;57735;56.264;43.898;2023-03-05T07:38:43;97672.28;;;0.63;73.90
70323;BME280;57735;56.264;43.898;2023-03-05T07:41:17;97669.69;;;0.71;73.54
70323;BME280;57735;56.264;43.898;2023-03-05T07:43:53;97678.06;;;0.75;72.46
70323;BME280;57735;56.264;43.898;2023-03-05T07:46:25;97683.66;;;0.80;72.60
70323;BME280;57735;56.264;43.898;2023-03-05T07:48:56;97680.22;;;0.87;72.20
70323;BME280;57735;56.264;43.898;2023-03-05T07:51:27;97694.19;;;0.96;72.29
70323;BME280;57735;56.264;43.898;2023-03-05T07:53:57;97682.88;;;0.95;71.68
70323;BME280;57735;56.264;43.898;2023-03-05T07:56:29;97693.69;;;0.92;71.53
70323;BME280;57735;56.264;43.898;2023-03-05T07:59:05;97695.13;;;0.87;71.62
70323;BME280;57735;56.264;43.898;2023-03-05T08:01:38;97690.03;;;0.77;71.52
70323;BME280;57735;56.264;43.898;2023-03-05T08:04:12;97694.97;;;0.80;72.33
70323;BME280;57735;56.264;43.898;2023-03-05T08:06:43;97694.47;;;0.85;72.33
70323;BME280;57735;56.264;43.898;2023-03-05T08:09:13;97709.75;;;0.89;71.92
70323;BME280;57735;56.264;43.898;2023-03-05T08:11:44;97697.28;;;0.91;71.44
70323;BME280;57735;56.264;43.898;2023-03-05T08:14:14;97702.88;;;0.96;71.19
70323;BME280;57735;56.264;43.898;2023-03-05T08:16:47;97705.50;;;0.96;71.37
70323;BME280;57735;56.264;43.898;2023-03-05T08:19:21;97699.34;;;1.14;71.31
70323;BME280;57735;56.264;43.898;2023-03-05T08:21:54;97709.19;;;1.28;70.66
70323;BME280;57735;56.264;43.898;2023-03-05T08:24:24;97707.88;;;1.24;70.26
70323;BME280;57735;56.264;43.898;2023-03-05T08:26:58;97713.13;;;1.24;70.36
70323;BME280;57735;56.264;43.898;2023-03-05T08:29:31;97712.19;;;1.33;70.92
70323;BME280;57735;56.264;43.898;2023-03-05T08:32:02;97703.63;;;1.31;70.75
70323;BME280;57735;56.264;43.898;2023-03-05T08:34:33;97718.06;;;1.27;70.89
70323;BME280;57735;56.264;43.898;2023-03-05T08:37:03;97716.09;;;1.29;71.18
70323;BME280;57735;56.264;43.898;2023-03-05T08:39:35;97717.75;;;1.30;71.15
70323;BME280;57735;56.264;43.898;2023-03-05T08:42:06;97713.66;;;1.44;71.55
70323;BME280;57735;56.264;43.898;2023-03-05T08:44:36;97712.84;;;1.51;70.88
70323;BME280;57735;56.264;43.898;2023-03-05T08:47:07;97711.38;;;1.49;71.40
70323;BME280;57735;56.264;43.898;2023-03-05T08:49:37;97718.75;;;1.45;71.35
70323;BME280;57735;56.264;43.898;2023-03-05T08:52:08;97712.34;;;1.39;71.41
70323;BME280;57735;56.264;43.898;2023-03-05T08:54:41;97710.06;;;1.45;71.81
70323;BME280;57735;56.264;43.898;2023-03-05T08:57:12;97715.97;;;1.55;71.57
70323;BME280;57735;56.264;43.898;2023-03-05T08:59:42;97714.81;;;1.57;71.65
70323;BME280;57735;56.264;43.898;2023-03-05T09:02:13;97706.28;;;1.55;71.36
70323;BME280;57735;56.264;43.898;2023-03-05T09:04:43;97702.03;;;1.62;71.77
70323;BME280;57735;56.264;43.898;2023-03-05T09:07:14;97708.44;;;1.60;71.02
70323;BME280;57735;56.264;43.898;2023-03-05T09:09:46;97706.94;;;1.49;71.55
70323;BME280;57735;56.264;43.898;2023-03-05T09:12:17;97714.16;;;1.47;71.53
70323;BME280;57735;56.264;43.898;2023-03-05T09:14:47;97706.94;;;1.57;71.76
70323;BME280;57735;56.264;43.898;2023-03-05T09:17:18;97704.00;;;1.77;71.41
70323;BME280;57735;56.264;43.898;2023-03-05T09:19:49;97716.81;;;1.88;70.56
70323;BME280;57735;56.264;43.898;2023-03-05T09:22:19;97721.09;;;1.97;69.92
70323;BME280;57735;56.264;43.898;2023-03-05T09:24:50;97716.81;;;1.96;69.03
70323;BME280;57735;56.264;43.898;2023-03-05T09:27:20;97714.53;;;2.01;69.44
70323;BME280;57735;56.264;43.898;2023-03-05T09:29:53;97718.59;;;2.12;68.55
70323;BME280;57735;56.264;43.898;2023-03-05T09:32:26;97711.53;;;2.12;68.44
70323;BME280;57735;56.264;43.898;2023-03-05T09:34:57;97720.38;;;2.35;67.40
70323;BME280;57735;56.264;43.898;2023-03-05T09:37:28;97713.13;;;2.45;67.10
70323;BME280;57735;56.264;43.898;2023-03-05T09:40:00;97716.09;;;2.42;66.88
70323;BME280;57735;56.264;43.898;2023-03-05T09:48:19;97718.88;;;2.41;66.58
70323;BME280;57735;56.264;43.898;2023-03-05T09:50:58;97728.91;;;2.37;67.07
70323;BME280;57735;56.264;43.898;2023-03-05T09:53:41;97720.38;;;2.35;67.11
70323;BME280;57735;56.264;43.898;2023-03-05T09:56:14;97716.44;;;2.23;67.80
70323;BME280;57735;56.264;43.898;2023-03-05T09:58:53;97720.38;;;2.19;68.14
70323;BME280;57735;56.264;43.898;2023-03-05T10:01:27;97717.47;;;2.14;68.33
70323;BME280;57735;56.264;43.898;2023-03-05T10:06:35;97729.47;;;1.84;68.99
70323;BME280;57735;56.264;43.898;2023-03-05T10:14:14;97717.63;;;1.72;69.82
70323;BME280;57735;56.264;43.898;2023-03-05T10:35:56;97743.63;;;1.25;70.48
70323;BME280;57735;56.264;43.898;2023-03-05T10:38:43;97738.47;;;0.99;71.25
70323;BME280;57735;56.264;43.898;2023-03-05T10:46:40;97739.91;;;0.93;72.23
70323;BME280;57735;56.264;43.898;2023-03-05T10:49:15;97738.94;;;0.94;72.82
70323;BME280;57735;56.264;43.898;2023-03-05T10:51:50;97742.22;;;0.96;72.77
70323;BME280;57735;56.264;43.898;2023-03-05T10:54:55;97736.78;;;0.90;73.00
70323;BME280;57735;56.264;43.898;2023-03-05T10:57:20;97729.75;;;0.90;73.11
70323;BME280;57735;56.264;43.898;2023-03-05T11:02:21;97731.91;;;1.03;71.49
70323;BME280;57735;56.264;43.898;2023-03-05T11:04:52;97740.94;;;1.09;71.26
70323;BME280;57735;56.264;43.898;2023-03-05T11:12:44;97734.53;;;1.61;70.92
70323;BME280;57735;56.264;43.898;2023-03-05T11:17:46;97745.38;;;1.66;69.69
70323;BME280;57735;56.264;43.898;2023-03-05T11:23:05;97742.72;;;1.58;69.98
70323;BME280;57735;56.264;43.898;2023-03-05T11:28:29;97746.44;;;1.31;70.79
70323;BME280;57735;56.264;43.898;2023-03-05T11:31:02;97749.50;;;1.19;71.28
70323;BME280;57735;56.264;43.898;2023-03-05T11:33:34;97752.78;;;1.13;71.50
70323;BME280;57735;56.264;43.898;2023-03-05T11:36:10;97756.56;;;1.18;71.44
70323;BME280;57735;56.264;43.898;2023-03-05T11:38:46;97756.28;;;1.29;71.75
70323;BME280;57735;56.264;43.898;2023-03-05T11:41:22;97757.56;;;1.25;71.27
70323;BME280;57735;56.264;43.898;2023-03-05T11:43:54;97756.25;;;1.21;71.45
70323;BME280;57735;56.264;43.898;2023-03-05T11:46:25;97761.94;;;1.09;71.76
70323;BME280;57735;56.264;43.898;2023-03-05T11:48:56;97763.06;;;1.06;72.09
70323;BME280;57735;56.264;43.898;2023-03-05T11:51:31;97763.53;;;1.01;72.30
70323;BME280;57735;56.264;43.898;2023-03-05T11:54:06;97757.31;;;0.94;72.92
70323;BME280;57735;56.264;43.898;2023-03-05T11:56:43;97762.91;;;1.08;73.06
70323;BME280;57735;56.264;43.898;2023-03-05T12:02:21;97771.50;;;1.26;71.86
70323;BME280;57735;56.264;43.898;2023-03-05T12:04:54;97764.31;;;1.36;72.26
70323;BME280;57735;56.264;43.898;2023-03-05T12:07:29;97772.69;;;1.31;71.87
70323;BME280;57735;56.264;43.898;2023-03-05T12:10:04;97778.72;;;1.24;72.81
70323;BME280;57735;56.264;43.898;2023-03-05T12:20:24;97800.16;;;0.77;74.84
70323;BME280;57735;56.264;43.898;2023-03-05T12:22:58;97793.78;;;0.54;75.52
70323;BME280;57735;56.264;43.898;2023-03-05T12:25:33;97794.44;;;0.56;76.50
70323;BME280;57735;56.264;43.898;2023-03-05T12:28:04;97799.38;;;0.59;76.38
70323;BME280;57735;56.264;43.898;2023-03-05T12:38:50;97803.50;;;0.61;76.57
70323;BME280;57735;56.264;43.898;2023-03-05T12:46:44;97820.09;;;0.70;75.91
70323;BME280;57735;56.264;43.898;2023-03-05T12:51:49;97821.94;;;0.78;75.53
70323;BME280;57735;56.264;43.898;2023-03-05T12:54:26;97827.13;;;0.69;75.60
70323;BME280;57735;56.264;43.898;2023-03-05T12:57:01;97827.19;;;0.78;76.02
70323;BME280;57735;56.264;43.898;2023-03-05T12:59:44;97828.47;;;0.74;75.87
70323;BME280;57735;56.264;43.898;2023-03-05T13:02:30;97841.69;;;0.64;76.14
70323;BME280;57735;56.264;43.898;2023-03-05T13:05:03;97847.50;;;0.50;76.29
70323;BME280;57735;56.264;43.898;2023-03-05T13:07:34;97849.16;;;0.33;76.24
70323;BME280;57735;56.264;43.898;2023-03-05T13:10:05;97841.75;;;0.28;76.15
70323;BME280;57735;56.264;43.898;2023-03-05T13:12:36;97847.28;;;0.25;76.17
70323;BME280;57735;56.264;43.898;2023-03-05T13:15:07;97851.31;;;0.20;76.59
70323;BME280;57735;56.264;43.898;2023-03-05T13:18:00;97856.66;;;0.10;77.32
70323;BME280;57735;56.264;43.898;2023-03-05T13:20:34;97850.59;;;0.10;77.87
70323;BME280;57735;56.264;43.898;2023-03-05T13:23:18;97859.28;;;0.10;78.17
70323;BME280;57735;56.264;43.898;2023-03-05T13:26:00;97862.56;;;0.12;78.39
70323;BME280;57735;56.264;43.898;2023-03-05T13:28:31;97870.88;;;0.08;78.42
70323;BME280;57735;56.264;43.898;2023-03-05T13:31:12;97868.91;;;0.10;78.45
70323;BME280;57735;56.264;43.898;2023-03-05T13:33:56;97874.25;;;0.00;78.49
70323;BME280;57735;56.264;43.898;2023-03-05T13:36:26;97880.22;;;-0.08;79.07
70323;BME280;57735;56.264;43.898;2023-03-05T13:38:59;97885.72;;;-0.11;79.67
70323;BME280;57735;56.264;43.898;2023-03-05T13:41:31;97890.53;;;-0.06;79.93
70323;BME280;57735;56.264;43.898;2023-03-05T13:44:02;97892.72;;;-0.02;79.87
70323;BME280;57735;56.264;43.898;2023-03-05T13:46:35;97890.84;;;0.09;79.75
70323;BME280;57735;56.264;43.898;2023-03-05T13:49:21;97904.09;;;0.25;79.55
70323;BME280;57735;56.264;43.898;2023-03-05T13:51:53;97909.94;;;0.37;78.64
70323;BME280;57735;56.264;43.898;2023-03-05T13:54:24;97903.66;;;0.47;78.07
70323;BME280;57735;56.264;43.898;2023-03-05T13:57:00;97909.72;;;0.48;77.03
70323;BME280;57735;56.264;43.898;2023-03-05T13:59:32;97917.94;;;0.53;77.17
70323;BME280;57735;56.264;43.898;2023-03-05T14:02:15;97920.88;;;0.50;76.47
70323;BME280;57735;56.264;43.898;2023-03-05T14:04:48;97918.84;;;0.44;76.14
70323;BME280;57735;56.264;43.898;2023-03-05T14:09:50;97933.81;;;0.33;75.71
70323;BME280;57735;56.264;43.898;2023-03-05T14:12:35;97932.75;;;0.26;74.68
70323;BME280;57735;56.264;43.898;2023-03-05T14:15:20;97953.19;;;0.23;74.52
70323;BME280;57735;56.264;43.898;2023-03-05T14:17:51;97959.69;;;0.19;74.34
70323;BME280;57735;56.264;43.898;2023-03-05T14:20:24;97956.56;;;0.15;74.00
70323;BME280;57735;56.264;43.898;2023-03-05T14:22:59;97960.72;;;0.08;73.93
70323;BME280;57735;56.264;43.898;2023-03-05T14:25:36;97961.16;;;0.04;74.15
70323;BME280;57735;56.264;43.898;2023-03-05T14:28:29;97974.03;;;-0.03;74.27
70323;BME280;57735;56.264;43.898;2023-03-05T14:30:59;97976.97;;;-0.16;74.04
70323;BME280;57735;56.264;43.898;2023-03-05T14:33:30;97981.59;;;-0.27;74.38
70323;BME280;57735;56.264;43.898;2023-03-05T14:36:01;97984.63;;;-0.32;74.66
70323;BME280;57735;56.264;43.898;2023-03-05T14:38:32;97989.34;;;-0.36;74.82
70323;BME280;57735;56.264;43.898;2023-03-05T14:41:19;97991.28;;;-0.38;74.83
70323;BME280;57735;56.264;43.898;2023-03-05T14:43:50;98012.91;;;-0.45;74.84
70323;BME280;57735;56.264;43.898;2023-03-05T14:46:21;98008.41;;;-0.53;75.40
70323;BME280;57735;56.264;43.898;2023-03-05T14:48:51;98008.97;;;-0.59;75.39
70323;BME280;57735;56.264;43.898;2023-03-05T14:51:22;98016.53;;;-0.65;75.72